Time;durP1;ratioP1;P1;durP2;ratioP2;P2;SDS_P1;SDS_P2;PMS_P1;PMS_P2;Temp;Humidity;BMP_temperature;BMP_pressure;BME280_temperature;BME280_humidity;BME280_pressure;Samples;Min_cycle;Max_cycle;Signal;HPM_P1;HPM_P2
2024/04/26 00:02:32;;;;;;;3.30;2.10;;;11.80;75.00;;;;;;5460572;26;20519;-48
2024/04/26 00:05:02;;;;;;;3.30;1.83;;;11.70;74.20;;;;;;5457101;26;20466;-48
2024/04/26 00:07:31;;;;;;;2.03;1.83;;;11.80;75.20;;;;;;5443252;26;20527;-47
2024/04/26 00:10:02;;;;;;;3.23;1.63;;;11.80;75.20;;;;;;5466084;26;20883;-48
2024/04/26 00:12:34;;;;;;;2.23;1.80;;;11.80;75.10;;;;;;5474505;26;20563;-47
2024/04/26 00:15:05;;;;;;;3.10;1.80;;;11.80;75.30;;;;;;5454116;26;20563;-48
2024/04/26 00:17:35;;;;;;;2.53;2.10;;;11.80;74.40;;;;;;5459948;26;20461;-47
2024/04/26 00:20:06;;;;;;;2.60;1.57;;;11.80;75.20;;;;;;5429732;26;20937;-47
2024/04/26 00:22:36;;;;;;;2.17;2.07;;;11.80;75.00;;;;;;5463236;26;20468;-50
2024/04/26 00:25:04;;;;;;;2.20;2.00;;;11.70;74.70;;;;;;5477271;26;20561;-47
2024/04/26 00:27:36;;;;;;;3.20;1.60;;;11.80;74.70;;;;;;5470197;26;21383;-48
2024/04/26 00:30:07;;;;;;;1.70;1.60;;;11.70;74.80;;;;;;5467212;26;20872;-47
2024/04/26 00:32:37;;;;;;;3.33;1.90;;;11.80;74.70;;;;;;5467994;26;20513;-48
2024/04/26 00:35:07;;;;;;;1.80;1.50;;;11.70;74.10;;;;;;5472768;26;20513;-47
2024/04/26 00:37:39;;;;;;;2.27;1.97;;;11.80;75.30;;;;;;5475291;26;20504;-47
2024/04/26 00:40:10;;;;;;;3.23;2.10;;;11.70;75.20;;;;;;5473080;26;20873;-47
2024/04/26 00:42:42;;;;;;;2.53;2.00;;;11.80;74.70;;;;;;5466526;26;20534;-49
2024/04/26 00:45:12;;;;;;;2.80;1.90;;;11.70;74.30;;;;;;5473371;26;21132;-47
2024/04/26 00:47:42;;;;;;;1.83;1.53;;;11.70;74.20;;;;;;5474147;26;20789;-48
2024/04/26 00:50:12;;;;;;;4.10;1.93;;;11.70;74.80;;;;;;5478789;26;20462;-48
2024/04/26 00:52:42;;;;;;;1.90;1.80;;;11.80;75.10;;;;;;5466746;26;20538;-48
2024/04/26 00:55:13;;;;;;;2.40;2.20;;;11.80;74.90;;;;;;5474078;26;20453;-48
2024/04/26 00:57:45;;;;;;;3.67;2.40;;;11.80;75.20;;;;;;5475389;26;20498;-48
2024/04/26 01:00:16;;;;;;;1.93;1.60;;;11.70;74.30;;;;;;5476190;26;20580;-48
2024/04/26 01:02:46;;;;;;;2.40;1.90;;;11.70;74.60;;;;;;5475752;26;20447;-48
2024/04/26 01:05:17;;;;;;;2.37;1.43;;;11.70;74.70;;;;;;5471554;26;20519;-49
2024/04/26 01:07:47;;;;;;;3.33;1.90;;;11.80;75.20;;;;;;5468268;26;20458;-50
2024/04/26 01:10:17;;;;;;;3.60;1.93;;;11.70;74.40;;;;;;5473074;26;20473;-47
2024/04/26 01:12:50;;;;;;;3.23;2.10;;;11.70;74.90;;;;;;5487816;26;20450;-48
2024/04/26 01:15:20;;;;;;;2.80;2.07;;;11.70;74.50;;;;;;5467666;26;20506;-49
2024/04/26 01:17:51;;;;;;;3.60;2.13;;;11.70;74.50;;;;;;5459023;26;20913;-48
2024/04/26 01:20:21;;;;;;;2.87;1.80;;;11.70;74.30;;;;;;5475275;26;21022;-48
2024/04/26 01:22:53;;;;;;;2.63;1.80;;;11.70;75.10;;;;;;5458228;26;20574;-47
2024/04/26 01:25:26;;;;;;;2.53;2.10;;;11.70;74.50;;;;;;5436171;26;20462;-48
2024/04/26 01:27:56;;;;;;;3.00;1.87;;;11.70;74.60;;;;;;5475284;26;21097;-47
2024/04/26 01:30:26;;;;;;;3.93;2.40;;;11.70;74.00;;;;;;5470352;26;20470;-48
2024/04/26 01:32:56;;;;;;;2.87;2.17;;;11.70;74.60;;;;;;5472124;26;20458;-47
2024/04/26 01:35:26;;;;;;;2.00;1.80;;;11.70;74.20;;;;;;5465783;26;20464;-48
2024/04/26 01:37:56;;;;;;;2.80;1.90;;;11.70;74.30;;;;;;5476731;26;20448;-48
2024/04/26 01:40:28;;;;;;;2.60;1.77;;;11.70;73.70;;;;;;5453816;26;21054;-48
2024/04/26 01:42:58;;;;;;;3.67;1.70;;;11.70;74.20;;;;;;5471772;26;20565;-47
2024/04/26 01:45:28;;;;;;;2.40;2.00;;;11.70;74.70;;;;;;5468806;26;20468;-47
2024/04/26 01:47:58;;;;;;;2.23;2.03;;;11.70;74.90;;;;;;5476819;26;20505;-47
2024/04/26 01:50:29;;;;;;;3.40;2.57;;;11.70;74.70;;;;;;5469602;26;20580;-47
2024/04/26 01:52:59;;;;;;;2.90;2.10;;;11.70;74.30;;;;;;5458858;26;20446;-49
2024/04/26 01:55:32;;;;;;;2.10;1.90;;;11.70;74.30;;;;;;5444666;26;20507;-49
2024/04/26 01:57:59;;;;;;;2.00;1.80;;;11.70;74.60;;;;;;5448604;26;20840;-47
2024/04/26 02:00:29;;;;;;;3.20;2.10;;;11.70;74.90;;;;;;5472885;26;20478;-48
2024/04/26 02:02:56;;;;;;;2.77;2.00;;;11.70;74.50;;;;;;5453298;26;20470;-49
2024/04/26 02:05:26;;;;;;;4.13;1.93;;;11.70;74.20;;;;;;5454352;26;20499;-48
2024/04/26 02:07:54;;;;;;;2.30;2.10;;;11.70;74.30;;;;;;5459706;26;20845;-47
2024/04/26 02:10:23;;;;;;;2.43;2.23;;;11.60;74.80;;;;;;5471393;26;20819;-48
2024/04/26 02:12:54;;;;;;;2.73;1.87;;;11.70;75.10;;;;;;5467762;26;20475;-47
2024/04/26 02:15:24;;;;;;;2.67;2.03;;;11.70;74.30;;;;;;5439430;26;20868;-48
2024/04/26 02:17:51;;;;;;;1.90;1.80;;;11.70;74.50;;;;;;5453952;26;20457;-49
2024/04/26 02:20:21;;;;;;;3.10;2.27;;;11.70;74.30;;;;;;5439801;26;20466;-47
2024/04/26 02:22:51;;;;;;;2.63;2.43;;;11.70;74.20;;;;;;5462176;26;21021;-47
2024/04/26 02:25:23;;;;;;;2.10;1.90;;;11.70;74.70;;;;;;5472458;26;20531;-47
2024/04/26 02:27:55;;;;;;;2.63;2.20;;;11.70;74.90;;;;;;5466885;26;20499;-48
2024/04/26 02:30:25;;;;;;;3.03;2.67;;;11.70;75.40;;;;;;5453494;26;20454;-47
2024/04/26 02:32:57;;;;;;;3.00;1.90;;;11.70;75.10;;;;;;5473258;26;21132;-47
2024/04/26 02:35:27;;;;;;;3.33;2.30;;;11.70;74.50;;;;;;5457361;26;21110;-49
2024/04/26 02:37:59;;;;;;;2.50;2.13;;;11.70;74.50;;;;;;5462284;26;20843;-49
2024/04/26 02:40:29;;;;;;;3.00;2.40;;;11.70;75.40;;;;;;5474665;26;20880;-47
2024/04/26 02:43:03;;;;;;;1.97;1.80;;;11.70;75.00;;;;;;5474854;26;20517;-46
2024/04/26 02:45:33;;;;;;;4.43;2.53;;;11.70;75.40;;;;;;5472338;26;20510;-48
2024/04/26 02:48:03;;;;;;;2.80;2.30;;;11.60;75.20;;;;;;5461290;26;20475;-47
2024/04/26 02:50:33;;;;;;;5.57;2.00;;;11.60;74.80;;;;;;5460797;26;20518;-47
2024/04/26 02:53:05;;;;;;;2.50;1.83;;;11.60;75.20;;;;;;5463189;26;20468;-47
2024/04/26 02:55:35;;;;;;;2.57;2.10;;;11.60;75.00;;;;;;5472548;26;21025;-47
2024/04/26 02:58:07;;;;;;;2.20;2.03;;;11.60;74.90;;;;;;5432205;26;20467;-47
2024/04/26 03:00:37;;;;;;;3.20;2.23;;;11.70;75.50;;;;;;5467088;26;20517;-47
2024/04/26 03:03:07;;;;;;;3.97;2.43;;;11.70;74.70;;;;;;5465456;26;20556;-48
2024/04/26 03:05:38;;;;;;;4.37;2.20;;;11.60;74.90;;;;;;5454659;26;20549;-49
2024/04/26 03:08:08;;;;;;;2.63;2.30;;;11.60;74.60;;;;;;5448743;26;20546;-50
2024/04/26 03:10:38;;;;;;;2.13;1.93;;;11.60;74.80;;;;;;5439574;26;20588;-48
2024/04/26 03:13:11;;;;;;;1.90;1.63;;;11.60;74.90;;;;;;5438729;26;20515;-48
2024/04/26 03:15:41;;;;;;;2.10;1.70;;;11.60;75.10;;;;;;5460981;26;20551;-47
2024/04/26 03:18:12;;;;;;;2.67;2.47;;;11.60;74.70;;;;;;5451091;26;20544;-48
2024/04/26 03:20:42;;;;;;;2.60;2.10;;;11.60;74.70;;;;;;5472678;26;20518;-49
2024/04/26 03:23:12;;;;;;;2.17;2.07;;;11.60;74.50;;;;;;5470439;26;20506;-48
2024/04/26 03:25:42;;;;;;;5.27;2.37;;;11.60;75.10;;;;;;5450768;26;20463;-49
2024/04/26 03:28:16;;;;;;;2.83;2.53;;;11.60;74.60;;;;;;5449415;26;20573;-48
2024/04/26 03:30:46;;;;;;;4.43;2.00;;;11.60;74.90;;;;;;5459291;26;20463;-48
2024/04/26 03:33:16;;;;;;;3.10;2.07;;;11.60;75.10;;;;;;5452479;26;20463;-48
2024/04/26 03:35:46;;;;;;;2.60;2.30;;;11.60;74.90;;;;;;5471149;26;20490;-49
2024/04/26 03:38:17;;;;;;;2.00;1.90;;;11.60;75.00;;;;;;5474466;26;20458;-48
2024/04/26 03:40:46;;;;;;;6.23;3.13;;;11.60;75.40;;;;;;5464190;26;20506;-49
2024/04/26 03:43:20;;;;;;;2.87;1.83;;;11.60;75.10;;;;;;5460441;26;20447;-46
2024/04/26 03:45:50;;;;;;;3.00;2.70;;;11.60;75.70;;;;;;5471218;26;20541;-47
2024/04/26 03:48:20;;;;;;;3.53;2.20;;;11.60;74.70;;;;;;5472993;26;20855;-48
2024/04/26 03:50:50;;;;;;;3.23;2.17;;;11.60;75.00;;;;;;5470248;26;20811;-47
2024/04/26 03:53:20;;;;;;;2.70;2.37;;;11.60;74.90;;;;;;5463839;26;20446;-48
2024/04/26 03:55:52;;;;;;;2.53;2.20;;;11.60;75.00;;;;;;5475749;26;20453;-47
2024/04/26 03:58:25;;;;;;;3.30;2.40;;;11.50;75.40;;;;;;5467672;26;20576;-47
2024/04/26 04:00:55;;;;;;;5.13;2.60;;;11.60;75.30;;;;;;5471924;26;20526;-48
2024/04/26 04:03:25;;;;;;;3.73;2.40;;;11.60;75.70;;;;;;5467218;26;20493;-49
2024/04/26 04:05:56;;;;;;;2.73;2.23;;;11.60;75.70;;;;;;5465987;26;20498;-47
2024/04/26 04:08:26;;;;;;;3.93;2.97;;;11.60;75.80;;;;;;5446085;26;20555;-47
2024/04/26 04:10:56;;;;;;;3.53;2.50;;;11.60;75.40;;;;;;5475018;26;21349;-48
2024/04/26 04:13:28;;;;;;;3.03;2.37;;;11.50;75.20;;;;;;5467579;26;20458;-47
2024/04/26 04:15:59;;;;;;;5.53;2.80;;;11.50;75.60;;;;;;5473735;26;20562;-47
2024/04/26 04:18:29;;;;;;;4.17;2.40;;;11.60;75.70;;;;;;5462719;26;20470;-47
2024/04/26 04:20:59;;;;;;;2.20;2.00;;;11.50;75.20;;;;;;5467443;26;20782;-47
2024/04/26 04:23:29;;;;;;;4.00;2.40;;;11.60;75.70;;;;;;5442433;26;20884;-48
2024/04/26 04:25:59;;;;;;;3.53;2.73;;;11.60;76.80;;;;;;5445019;26;20454;-49
2024/04/26 04:28:32;;;;;;;2.90;2.27;;;11.50;75.00;;;;;;5478337;26;21097;-49
2024/04/26 04:31:04;;;;;;;3.00;2.50;;;11.50;74.80;;;;;;5466957;26;21178;-49
2024/04/26 04:33:34;;;;;;;3.40;2.70;;;11.50;75.50;;;;;;5474684;26;20446;-48
2024/04/26 04:36:05;;;;;;;2.60;2.40;;;11.50;74.80;;;;;;5473229;26;20909;-47
2024/04/26 04:38:36;;;;;;;4.23;2.37;;;11.50;75.40;;;;;;5477640;26;20537;-48
2024/04/26 04:41:07;;;;;;;3.53;2.50;;;11.50;75.20;;;;;;5466972;26;20467;-48
2024/04/26 04:43:40;;;;;;;3.10;2.53;;;11.50;75.00;;;;;;5444181;26;20470;-48
2024/04/26 04:46:11;;;;;;;2.63;2.30;;;11.50;75.40;;;;;;5442920;26;20593;-47
2024/04/26 04:48:42;;;;;;;3.80;2.47;;;11.50;75.00;;;;;;5476817;26;20543;-47
2024/04/26 04:51:14;;;;;;;2.93;2.47;;;11.50;75.80;;;;;;5456934;26;20478;-48
2024/04/26 04:53:44;;;;;;;2.70;2.00;;;11.50;75.00;;;;;;5442351;26;20455;-49
2024/04/26 04:56:15;;;;;;;4.20;2.30;;;11.50;75.40;;;;;;5454283;26;20453;-48
2024/04/26 04:58:48;;;;;;;3.20;2.40;;;11.50;76.70;;;;;;5471382;26;20515;-47
2024/04/26 05:01:18;;;;;;;2.60;2.00;;;11.50;75.50;;;;;;5468305;26;20583;-47
2024/04/26 05:03:49;;;;;;;4.43;2.47;;;11.50;75.80;;;;;;5473772;26;20494;-47
2024/04/26 05:06:20;;;;;;;3.73;2.73;;;11.50;75.50;;;;;;5463254;26;20864;-48
2024/04/26 05:08:50;;;;;;;3.60;2.87;;;11.50;75.10;;;;;;5466325;26;20836;-48
2024/04/26 05:11:21;;;;;;;4.03;2.97;;;11.50;75.50;;;;;;5475044;26;21026;-50
2024/04/26 05:13:54;;;;;;;2.87;2.67;;;11.50;75.00;;;;;;5473473;26;20442;-48
2024/04/26 05:16:25;;;;;;;4.10;2.70;;;11.50;74.70;;;;;;5476925;26;20470;-48
2024/04/26 05:18:55;;;;;;;3.23;2.30;;;11.50;75.10;;;;;;5475757;26;20456;-48
2024/04/26 05:21:26;;;;;;;2.83;2.53;;;11.50;75.00;;;;;;5445807;26;20475;-47
2024/04/26 05:23:56;;;;;;;2.73;2.10;;;11.40;74.80;;;;;;5474512;26;21039;-48
2024/04/26 05:26:26;;;;;;;4.00;2.23;;;11.50;75.00;;;;;;5472571;26;20458;-49
2024/04/26 05:29:02;;;;;;;5.43;2.40;;;11.50;76.00;;;;;;5466123;26;20507;-50
2024/04/26 05:31:32;;;;;;;3.10;2.23;;;11.40;75.70;;;;;;5471913;26;20533;-48
2024/04/26 05:34:03;;;;;;;7.47;3.00;;;11.50;76.00;;;;;;5472770;26;20919;-47
2024/04/26 05:36:33;;;;;;;3.73;2.60;;;11.50;75.70;;;;;;5473999;26;21006;-48
2024/04/26 05:39:03;;;;;;;3.33;2.30;;;11.50;75.60;;;;;;5476852;26;20794;-48
2024/04/26 05:41:34;;;;;;;3.03;2.60;;;11.50;75.70;;;;;;5471220;26;20805;-48
2024/04/26 05:44:07;;;;;;;4.00;2.40;;;11.50;75.00;;;;;;5470871;26;20494;-48
2024/04/26 05:46:37;;;;;;;4.10;2.57;;;11.40;75.40;;;;;;5476836;26;20457;-49
2024/04/26 05:49:08;;;;;;;3.03;2.43;;;11.50;76.00;;;;;;5467519;26;20510;-48
2024/04/26 05:51:38;;;;;;;3.40;1.80;;;11.40;76.20;;;;;;5439624;26;21114;-48
2024/04/26 05:54:09;;;;;;;3.40;1.83;;;11.50;76.30;;;;;;5462639;26;20605;-48
2024/04/26 05:56:39;;;;;;;5.17;2.10;;;11.50;76.20;;;;;;5466121;26;20461;-48
2024/04/26 05:59:13;;;;;;;2.87;1.80;;;11.50;76.20;;;;;;5464376;26;20450;-48
2024/04/26 06:01:43;;;;;;;4.33;2.73;;;11.50;76.40;;;;;;5472853;26;20515;-49
2024/04/26 06:04:14;;;;;;;4.50;2.40;;;11.50;76.20;;;;;;5468784;26;20560;-48
2024/04/26 06:06:46;;;;;;;3.70;2.90;;;11.50;75.70;;;;;;5475904;26;20473;-48
2024/04/26 06:09:19;;;;;;;3.27;2.57;;;11.50;76.10;;;;;;5438401;26;20560;-48
2024/04/26 06:11:51;;;;;;;8.93;2.90;;;11.50;75.30;;;;;;5465969;26;20558;-49
2024/04/26 06:14:24;;;;;;;3.70;2.80;;;11.40;75.80;;;;;;5470423;26;20454;-49
2024/04/26 06:16:57;;;;;;;3.07;2.30;;;11.40;75.70;;;;;;5472871;26;20546;-48
2024/04/26 06:19:31;;;;;;;3.07;2.63;;;11.40;75.40;;;;;;5468659;26;20456;-48
2024/04/26 06:22:01;;;;;;;3.90;3.00;;;11.40;75.70;;;;;;5468183;26;20460;-48
2024/04/26 06:24:32;;;;;;;3.80;2.17;;;11.40;75.90;;;;;;5470534;26;20450;-48
2024/04/26 06:27:05;;;;;;;3.30;1.50;;;11.40;76.30;;;;;;5457689;26;20898;-48
2024/04/26 06:29:41;;;;;;;3.23;2.00;;;11.40;75.90;;;;;;5470792;26;20452;-49
2024/04/26 06:32:14;;;;;;;5.93;2.30;;;11.50;76.40;;;;;;5440698;26;20504;-48
2024/04/26 06:34:45;;;;;;;3.23;2.10;;;11.40;76.30;;;;;;5464352;26;20444;-47
2024/04/26 06:37:15;;;;;;;5.27;2.50;;;11.40;76.30;;;;;;5469541;26;20562;-49
2024/04/26 06:39:45;;;;;;;4.93;2.43;;;11.40;76.40;;;;;;5475056;26;20460;-47
2024/04/26 06:42:16;;;;;;;2.70;2.20;;;11.40;76.40;;;;;;5464345;26;20458;-47
2024/04/26 06:44:50;;;;;;;2.63;2.37;;;11.40;76.30;;;;;;5470561;26;20462;-48
2024/04/26 06:47:18;;;;;;;4.13;2.17;;;11.50;76.90;;;;;;5444150;26;20554;-49
2024/04/26 06:49:50;;;;;;;2.97;2.63;;;11.40;77.30;;;;;;5474720;26;21045;-48
2024/04/26 06:52:20;;;;;;;2.50;2.20;;;11.50;77.80;;;;;;5464279;26;20804;-46
2024/04/26 06:54:51;;;;;;;2.13;1.93;;;11.50;78.00;;;;;;5470539;26;20523;-47
2024/04/26 06:57:22;;;;;;;3.20;1.97;;;11.50;78.40;;;;;;5469727;26;20898;-47
2024/04/26 06:59:56;;;;;;;3.60;2.10;;;11.50;78.70;;;;;;5465130;26;20461;-46
2024/04/26 07:02:26;;;;;;;3.20;2.67;;;11.50;78.80;;;;;;5463993;26;20882;-47
2024/04/26 07:04:57;;;;;;;2.67;2.10;;;11.50;78.70;;;;;;5466152;26;20454;-47
2024/04/26 07:07:28;;;;;;;2.17;1.90;;;11.50;78.70;;;;;;5459683;26;20459;-46
2024/04/26 07:09:58;;;;;;;2.27;2.07;;;11.50;79.10;;;;;;5458019;26;20459;-47
2024/04/26 07:12:34;;;;;;;2.53;1.83;;;11.50;79.30;;;;;;5465993;26;20464;-47
2024/04/26 07:15:07;;;;;;;3.30;2.17;;;11.50;79.20;;;;;;5469714;26;20462;-46
2024/04/26 07:17:38;;;;;;;2.20;2.00;;;11.40;78.20;;;;;;5471006;26;20504;-47
2024/04/26 07:20:10;;;;;;;2.10;1.90;;;11.50;79.00;;;;;;5461237;26;20474;-47
2024/04/26 07:22:41;;;;;;;3.07;1.90;;;11.40;78.90;;;;;;5461541;26;20464;-47
2024/04/26 07:25:30;;;;;;;4.57;2.20;;;11.50;79.10;;;;;;5462230;26;20467;-47
2024/04/26 07:28:00;;;;;;;2.30;2.10;;;11.50;78.90;;;;;;5467401;26;20455;-47
2024/04/26 07:30:33;;;;;;;3.13;2.20;;;11.40;78.90;;;;;;5461573;26;20579;-46
2024/04/26 07:33:03;;;;;;;2.20;2.00;;;11.40;79.20;;;;;;5473503;26;20442;-47
2024/04/26 07:35:34;;;;;;;2.30;2.10;;;11.50;80.70;;;;;;5465620;26;20498;-47
2024/04/26 07:38:04;;;;;;;3.70;2.80;;;11.40;79.40;;;;;;5471674;26;20453;-47
2024/04/26 07:40:34;;;;;;;2.90;2.10;;;11.50;79.50;;;;;;5440619;26;20462;-47
2024/04/26 07:43:04;;;;;;;2.40;2.20;;;11.40;79.50;;;;;;5473925;26;21137;-47
2024/04/26 07:45:37;;;;;;;2.33;2.07;;;11.50;79.70;;;;;;5471768;26;20470;-47
2024/04/26 07:48:10;;;;;;;2.40;2.10;;;11.50;79.60;;;;;;5472808;26;20515;-47
2024/04/26 07:50:44;;;;;;;2.50;2.17;;;11.50;79.60;;;;;;5439331;26;20479;-47
2024/04/26 07:53:15;;;;;;;3.87;3.00;;;11.50;79.60;;;;;;5469438;26;20379;-47
2024/04/26 07:55:46;;;;;;;5.40;2.90;;;11.50;77.50;;;;;;5464788;26;20463;-46
2024/04/26 07:58:16;;;;;;;5.47;3.03;;;11.50;77.30;;;;;;5434230;26;20551;-47
2024/04/26 08:00:49;;;;;;;2.50;2.23;;;11.50;78.00;;;;;;5469867;26;20463;-47
2024/04/26 08:03:19;;;;;;;2.60;1.80;;;11.50;78.60;;;;;;5472398;26;20466;-47
2024/04/26 08:05:50;;;;;;;2.33;2.00;;;11.50;79.10;;;;;;5473633;26;20458;-47
2024/04/26 08:08:20;;;;;;;3.33;2.57;;;11.50;79.30;;;;;;5458859;26;20515;-47
2024/04/26 08:10:51;;;;;;;2.80;2.53;;;11.50;79.40;;;;;;5449247;26;20472;-47
2024/04/26 08:13:22;;;;;;;2.50;2.30;;;11.50;79.40;;;;;;5448342;26;20459;-47
2024/04/26 08:15:55;;;;;;;2.87;2.23;;;11.50;79.60;;;;;;5471847;26;20520;-47
2024/04/26 08:18:25;;;;;;;2.47;2.10;;;11.50;79.60;;;;;;5465864;26;20518;-47
2024/04/26 08:20:57;;;;;;;3.90;2.83;;;11.50;79.70;;;;;;5466072;26;20518;-47
2024/04/26 08:23:27;;;;;;;3.30;2.40;;;11.40;79.70;;;;;;5463916;26;20855;-46
2024/04/26 08:26:02;;;;;;;4.57;2.70;;;11.40;79.80;;;;;;5473469;26;20540;-46
2024/04/26 08:28:36;;;;;;;2.47;2.27;;;11.40;79.80;;;;;;5469750;26;20460;-47
2024/04/26 08:31:10;;;;;;;2.33;2.13;;;11.40;79.90;;;;;;5442434;26;20806;-47
2024/04/26 08:33:41;;;;;;;3.00;2.50;;;11.50;80.00;;;;;;5465619;26;20452;-47
2024/04/26 08:36:14;;;;;;;2.60;2.00;;;11.50;79.60;;;;;;5472718;26;20512;-46
2024/04/26 08:38:47;;;;;;;4.90;2.50;;;11.50;79.70;;;;;;5444758;26;20575;-47
2024/04/26 08:41:21;;;;;;;3.77;2.17;;;11.50;79.80;;;;;;5465040;26;20458;-47
2024/04/26 08:43:52;;;;;;;3.97;2.53;;;11.50;79.90;;;;;;5467012;26;20516;-47
2024/04/26 08:46:27;;;;;;;2.23;2.03;;;11.50;80.00;;;;;;5449667;26;20446;-46
2024/04/26 08:49:15;;;;;;;2.20;2.00;;;11.50;80.10;;;;;;5470709;26;20509;-47
2024/04/26 08:51:49;;;;;;;2.57;2.37;;;11.50;80.10;;;;;;5465113;26;21011;-47
2024/04/26 08:54:21;;;;;;;2.37;1.83;;;11.50;80.10;;;;;;5472612;26;20472;-47
2024/04/26 08:56:59;;;;;;;4.73;2.50;;;11.50;80.20;;;;;;5485278;26;20523;-46
2024/04/26 08:59:47;;;;;;;2.03;1.90;;;11.50;80.20;;;;;;5447876;26;20473;-47
2024/04/26 09:02:21;;;;;;;3.07;2.17;;;11.50;80.40;;;;;;5476739;26;20487;-47
2024/04/26 09:04:52;;;;;;;3.30;2.47;;;11.50;80.40;;;;;;5480324;26;20506;-47
2024/04/26 09:07:23;;;;;;;2.47;2.27;;;11.40;80.20;;;;;;5446268;26;20450;-47
2024/04/26 09:09:55;;;;;;;2.70;2.50;;;11.40;80.40;;;;;;5461768;26;20505;-46
2024/04/26 09:12:26;;;;;;;2.47;2.27;;;11.50;80.50;;;;;;5469058;26;20506;-47
2024/04/26 09:14:57;;;;;;;2.43;2.23;;;11.50;80.50;;;;;;5452606;26;20480;-47
2024/04/26 09:17:32;;;;;;;3.23;1.90;;;11.50;80.50;;;;;;5457064;26;20517;-47
2024/04/26 09:20:05;;;;;;;1.87;1.77;;;11.40;80.50;;;;;;5441307;26;20477;-48
2024/04/26 09:22:37;;;;;;;2.63;2.10;;;11.40;80.50;;;;;;5454814;26;20517;-48
2024/04/26 09:25:09;;;;;;;2.13;1.97;;;11.50;80.60;;;;;;5413625;26;20473;-47
2024/04/26 09:27:39;;;;;;;2.27;2.07;;;11.40;80.60;;;;;;5447199;26;21106;-47
2024/04/26 09:30:10;;;;;;;2.93;2.07;;;11.50;80.60;;;;;;5446617;26;20469;-48
2024/04/26 09:32:43;;;;;;;2.30;2.10;;;11.50;80.60;;;;;;5456013;26;20523;-49
2024/04/26 09:35:33;;;;;;;2.77;2.57;;;11.40;80.50;;;;;;5465163;26;21061;-48
2024/04/26 09:38:06;;;;;;;2.17;1.93;;;11.50;80.90;;;;;;5448370;26;20577;-49
2024/04/26 09:40:38;;;;;;;2.27;2.07;;;11.50;80.70;;;;;;5470714;26;20465;-49
2024/04/26 09:43:09;;;;;;;2.93;2.20;;;11.40;80.70;;;;;;5450825;26;20521;-47
2024/04/26 09:45:40;;;;;;;2.67;2.10;;;11.40;80.70;;;;;;5455223;26;20579;-49
2024/04/26 09:48:14;;;;;;;2.50;2.30;;;11.40;80.70;;;;;;5470241;26;20511;-47
2024/04/26 09:50:44;;;;;;;3.17;1.93;;;11.40;80.80;;;;;;5469656;26;20522;-47
2024/04/26 09:53:16;;;;;;;2.30;2.10;;;11.40;80.80;;;;;;5459795;26;20489;-48
2024/04/26 09:55:47;;;;;;;3.30;2.43;;;11.40;80.80;;;;;;5469155;26;21033;-47
2024/04/26 09:58:18;;;;;;;2.53;2.33;;;11.50;81.00;;;;;;5462143;26;20553;-48
2024/04/26 10:00:48;;;;;;;2.80;2.03;;;11.40;80.90;;;;;;5470227;26;20497;-49
2024/04/26 10:03:23;;;;;;;3.00;2.40;;;11.40;80.90;;;;;;5460816;26;20458;-48
2024/04/26 10:06:03;;;;;;;2.07;1.83;;;11.40;81.00;;;;;;5465920;26;20455;-48
2024/04/26 10:08:36;;;;;;;2.30;1.90;;;11.50;81.00;;;;;;5471478;26;20450;-48
2024/04/26 10:11:07;;;;;;;2.50;2.10;;;11.40;81.00;;;;;;5442696;26;20580;-47
2024/04/26 10:13:47;;;;;;;3.20;2.53;;;11.50;81.10;;;;;;5455732;26;21872;-47
2024/04/26 10:16:28;;;;;;;2.67;2.47;;;11.50;81.10;;;;;;5474682;26;20472;-48
2024/04/26 10:19:01;;;;;;;2.70;1.97;;;11.40;81.00;;;;;;5466513;26;20888;-48
2024/04/26 10:21:34;;;;;;;3.27;2.17;;;11.40;81.10;;;;;;5442779;26;20476;-48
2024/04/26 10:24:05;;;;;;;2.40;2.20;;;11.50;81.10;;;;;;5467429;26;20567;-48
2024/04/26 10:26:40;;;;;;;2.40;2.13;;;11.40;81.10;;;;;;5474359;26;20460;-49
2024/04/26 10:29:13;;;;;;;3.20;2.17;;;11.50;81.20;;;;;;5473298;26;20974;-48
2024/04/26 10:31:45;;;;;;;4.57;2.30;;;11.40;81.20;;;;;;5476070;26;20453;-49
2024/04/26 10:34:21;;;;;;;3.33;2.23;;;11.40;81.20;;;;;;5462070;26;20521;-48
2024/04/26 10:36:51;;;;;;;1.90;1.80;;;11.50;81.40;;;;;;5470087;26;20992;-48
2024/04/26 10:39:27;;;;;;;2.50;2.30;;;11.50;81.40;;;;;;5467185;26;20509;-48
2024/04/26 10:41:59;;;;;;;2.50;2.30;;;11.50;81.40;;;;;;5458150;26;20471;-48
2024/04/26 10:44:31;;;;;;;2.20;2.00;;;11.50;81.40;;;;;;5456174;26;20461;-47
2024/04/26 10:47:03;;;;;;;2.63;2.23;;;11.50;81.40;;;;;;5463872;25;20523;-48
2024/04/26 10:49:36;;;;;;;2.10;1.80;;;11.50;81.40;;;;;;5462711;26;20556;-48
2024/04/26 10:52:08;;;;;;;2.50;2.27;;;11.50;81.40;;;;;;5468416;26;20471;-48
2024/04/26 10:54:40;;;;;;;3.50;2.60;;;11.50;81.40;;;;;;5459315;26;20883;-47
2024/04/26 10:57:22;;;;;;;2.13;1.90;;;11.50;81.50;;;;;;5468532;26;20513;-47
2024/04/26 11:00:00;;;;;;;2.43;2.23;;;11.50;81.40;;;;;;5477146;26;20589;-49
2024/04/26 11:02:31;;;;;;;2.50;1.87;;;11.50;81.50;;;;;;5458626;26;20452;-48
2024/04/26 11:05:06;;;;;;;2.60;2.13;;;11.50;81.50;;;;;;5463175;26;20759;-48
2024/04/26 11:07:38;;;;;;;3.47;2.67;;;11.50;81.50;;;;;;5458468;26;20468;-48
2024/04/26 11:10:13;;;;;;;4.20;3.43;;;11.60;82.20;;;;;;5468565;26;20523;-48
2024/04/26 11:12:43;;;;;;;4.27;3.33;;;11.60;82.50;;;;;;5424322;26;20467;-48
2024/04/26 11:15:14;;;;;;;5.37;2.67;;;11.60;82.30;;;;;;5458589;26;20445;-47
2024/04/26 11:17:46;;;;;;;2.90;2.47;;;11.60;82.60;;;;;;5475236;26;21451;-48
2024/04/26 11:20:22;;;;;;;3.60;3.00;;;11.60;82.30;;;;;;5469268;26;20454;-47
2024/04/26 11:22:54;;;;;;;3.57;3.27;;;11.50;82.30;;;;;;5463723;26;20514;-49
2024/04/26 11:25:24;;;;;;;3.40;2.80;;;11.60;82.20;;;;;;5444996;26;20466;-50
2024/04/26 11:27:55;;;;;;;4.83;3.43;;;11.50;82.30;;;;;;5468658;26;20471;-48
2024/04/26 11:30:25;;;;;;;4.43;3.57;;;11.60;82.30;;;;;;5460656;26;20586;-48
2024/04/26 11:32:59;;;;;;;4.67;3.37;;;11.60;82.20;;;;;;5455176;26;20455;-48
2024/04/26 11:35:34;;;;;;;3.40;2.77;;;11.60;82.10;;;;;;5463802;26;20456;-49
2024/04/26 11:38:10;;;;;;;3.70;3.13;;;11.60;82.10;;;;;;5461834;26;20465;-48
2024/04/26 11:40:42;;;;;;;2.90;2.60;;;11.60;82.00;;;;;;5460251;26;20477;-48
2024/04/26 11:43:16;;;;;;;3.10;2.80;;;11.60;82.00;;;;;;5460632;26;20558;-48
2024/04/26 11:45:47;;;;;;;5.20;2.90;;;11.60;82.00;;;;;;5461963;26;21108;-48
2024/04/26 11:48:19;;;;;;;3.03;2.30;;;11.60;82.00;;;;;;5467547;26;20528;-48
2024/04/26 11:50:54;;;;;;;3.37;3.07;;;11.60;82.00;;;;;;5470553;26;20500;-50
2024/04/26 11:53:26;;;;;;;2.43;2.23;;;11.60;82.00;;;;;;5459905;26;20806;-48
2024/04/26 11:55:58;;;;;;;3.17;2.80;;;11.60;82.10;;;;;;5470665;26;20457;-47
2024/04/26 11:58:28;;;;;;;3.77;3.47;;;11.60;82.00;;;;;;5431755;26;20499;-50
2024/04/26 12:00:58;;;;;;;3.83;3.03;;;11.60;82.00;;;;;;5462555;26;20516;-47
2024/04/26 12:03:28;;;;;;;3.30;3.00;;;11.60;82.00;;;;;;5468194;26;20499;-48
2024/04/26 12:06:01;;;;;;;3.87;3.10;;;11.60;82.00;;;;;;5466983;26;20467;-47
2024/04/26 12:08:32;;;;;;;2.87;2.63;;;11.60;82.00;;;;;;5457409;26;20449;-48
2024/04/26 12:11:14;;;;;;;3.50;3.20;;;11.70;82.10;;;;;;5435865;26;20529;-51
2024/04/26 12:13:46;;;;;;;3.20;2.90;;;11.60;82.00;;;;;;5422942;26;21017;-47
2024/04/26 12:16:19;;;;;;;3.40;2.60;;;11.60;82.00;;;;;;5470750;26;20822;-47
2024/04/26 12:18:49;;;;;;;3.27;2.67;;;11.70;82.10;;;;;;5464173;26;21120;-48
2024/04/26 12:21:26;;;;;;;3.13;2.57;;;11.70;82.10;;;;;;5460953;26;21265;-48
2024/04/26 12:23:58;;;;;;;3.00;2.70;;;11.60;82.00;;;;;;5448151;26;20565;-48
2024/04/26 12:26:30;;;;;;;3.97;2.80;;;11.70;82.10;;;;;;5452309;26;20465;-49
2024/04/26 12:29:01;;;;;;;3.27;2.40;;;11.70;82.20;;;;;;5462720;26;20458;-49
2024/04/26 12:31:32;;;;;;;3.53;3.23;;;11.70;82.10;;;;;;5469943;26;20728;-49
2024/04/26 12:34:03;;;;;;;7.63;2.77;;;11.70;82.20;;;;;;5459518;26;21117;-48
2024/04/26 12:36:37;;;;;;;3.23;2.83;;;11.70;82.20;;;;;;5466981;26;20457;-50
2024/04/26 12:39:13;;;;;;;3.77;2.87;;;11.70;82.20;;;;;;5462527;26;20464;-49
2024/04/26 12:41:45;;;;;;;2.40;2.20;;;11.70;82.20;;;;;;5458428;26;20515;-48
2024/04/26 12:44:15;;;;;;;2.53;2.33;;;11.70;82.20;;;;;;5460047;26;20577;-47
2024/04/26 12:46:46;;;;;;;3.60;2.73;;;11.70;82.20;;;;;;5469662;26;20804;-50
2024/04/26 12:49:18;;;;;;;8.20;4.30;;;11.70;82.40;;;;;;5470722;26;20552;-49
2024/04/26 12:51:51;;;;;;;4.50;3.10;;;11.80;82.20;;;;;;5475730;26;20584;-48
2024/04/26 12:54:21;;;;;;;3.23;2.93;;;11.80;82.20;;;;;;5461319;26;20457;-48
2024/04/26 12:56:52;;;;;;;3.43;3.13;;;11.80;82.10;;;;;;5472260;26;20994;-49
2024/04/26 12:59:23;;;;;;;3.80;2.63;;;11.80;82.20;;;;;;5471473;26;20457;-49
2024/04/26 13:01:53;;;;;;;4.67;3.00;;;11.80;82.20;;;;;;5475560;26;20453;-49
2024/04/26 13:04:23;;;;;;;3.30;3.00;;;11.80;82.20;;;;;;5451068;26;20517;-48
2024/04/26 13:06:57;;;;;;;4.43;3.07;;;11.80;82.20;;;;;;5456591;26;20524;-50
2024/04/26 13:09:28;;;;;;;3.13;2.63;;;11.80;82.20;;;;;;5463959;26;20501;-48
2024/04/26 13:11:58;;;;;;;2.93;2.63;;;11.80;82.30;;;;;;5458044;26;20904;-49